createdAt,value
2023-03-27T00:00:38.144Z,85
2023-03-27T00:01:45.107Z,85
2023-03-27T00:02:52.045Z,85
2023-03-27T00:03:58.831Z,85
2023-03-27T00:05:05.531Z,85
2023-03-27T00:06:12.378Z,85
2023-03-27T00:07:21.723Z,85
2023-03-27T00:08:28.580Z,85
2023-03-27T00:09:35.477Z,85
2023-03-27T00:10:42.251Z,85
2023-03-27T00:11:49.079Z,85
2023-03-27T00:12:55.916Z,85
2023-03-27T00:14:02.812Z,85
2023-03-27T00:15:09.743Z,85
2023-03-27T00:16:21.975Z,85
2023-03-27T00:17:28.535Z,85
2023-03-27T00:18:35.408Z,85
2023-03-27T00:19:42.252Z,85
2023-03-27T00:20:49.017Z,85
2023-03-27T00:21:55.896Z,85
2023-03-27T00:23:02.843Z,85
2023-03-27T00:24:09.652Z,85
2023-03-27T00:25:16.449Z,86
2023-03-27T00:26:23.242Z,85
2023-03-27T00:27:30.124Z,85
2023-03-27T00:28:37.012Z,86
2023-03-27T00:29:43.795Z,85
2023-03-27T00:30:50.586Z,85
2023-03-27T00:31:57.388Z,85
2023-03-27T00:33:04.289Z,85
2023-03-27T00:34:11.148Z,85
2023-03-27T00:35:17.994Z,86
2023-03-27T00:36:24.800Z,85
2023-03-27T00:37:31.592Z,85
2023-03-27T00:38:38.364Z,85
2023-03-27T00:39:45.181Z,85
2023-03-27T00:40:52.053Z,85
2023-03-27T00:41:58.793Z,85
2023-03-27T00:43:05.536Z,85
2023-03-27T00:44:20.527Z,85
2023-03-27T00:45:30.145Z,85
2023-03-27T00:46:36.972Z,85
2023-03-27T00:47:43.750Z,85
2023-03-27T00:48:50.516Z,85
2023-03-27T00:49:57.364Z,85
2023-03-27T00:51:04.139Z,85
2023-03-27T00:52:11.041Z,85
2023-03-27T00:53:17.857Z,85
2023-03-27T00:54:24.596Z,85
2023-03-27T00:55:31.388Z,85
2023-03-27T00:56:38.343Z,85
2023-03-27T00:57:45.053Z,85
2023-03-27T00:58:54.745Z,85
2023-03-27T01:00:01.605Z,85
2023-03-27T01:01:08.564Z,85
2023-03-27T01:02:15.386Z,85
2023-03-27T01:03:22.279Z,85
2023-03-27T01:04:29.053Z,85
2023-03-27T01:05:35.886Z,85
2023-03-27T01:06:42.715Z,85
2023-03-27T01:07:51.324Z,85
2023-03-27T01:08:56.372Z,85
2023-03-27T01:10:03.220Z,85
2023-03-27T01:11:10.309Z,85
2023-03-27T01:12:22.173Z,85
2023-03-27T01:13:34.125Z,85
2023-03-27T01:14:51.050Z,85
2023-03-27T01:16:08.029Z,85
2023-03-27T01:17:19.845Z,85
2023-03-27T01:18:26.669Z,85
2023-03-27T01:19:33.568Z,85
2023-03-27T01:20:48.138Z,85
2023-03-27T01:22:02.836Z,85
2023-03-27T01:23:14.828Z,85
2023-03-27T01:24:24.375Z,85
2023-03-27T01:25:39.213Z,85
2023-03-27T01:26:56.079Z,85
2023-03-27T01:28:08.000Z,85
2023-03-27T01:29:19.970Z,85
2023-03-27T01:30:26.719Z,85
2023-03-27T01:31:36.531Z,85
2023-03-27T01:32:51.228Z,85
2023-03-27T01:34:05.719Z,85
2023-03-27T01:35:22.615Z,85
2023-03-27T01:36:37.307Z,85
2023-03-27T01:37:54.327Z,85
2023-03-27T01:39:11.259Z,85
2023-03-27T01:40:20.694Z,85
2023-03-27T01:41:27.499Z,85
2023-03-27T01:42:39.280Z,85
2023-03-27T01:43:54.148Z,85
2023-03-27T01:45:03.831Z,85
2023-03-27T01:46:20.749Z,85
2023-03-27T01:47:27.518Z,85
2023-03-27T01:48:41.929Z,85
2023-03-27T01:49:51.492Z,85
2023-03-27T01:51:06.156Z,85
2023-03-27T01:52:18.741Z,85
2023-03-27T01:53:25.618Z,85
2023-03-27T01:54:37.491Z,85
2023-03-27T01:55:47.107Z,85
2023-03-27T01:56:54.011Z,85
2023-03-27T01:58:03.540Z,85
2023-03-27T01:59:10.326Z,85
2023-03-27T02:00:19.348Z,85
2023-03-27T02:01:24.070Z,84
2023-03-27T02:02:36.429Z,85
2023-03-27T02:03:43.171Z,85
2023-03-27T02:04:49.994Z,85
2023-03-27T02:06:01.885Z,85
2023-03-27T02:07:11.482Z,84
2023-03-27T02:08:18.273Z,85
2023-03-27T02:09:27.909Z,85
2023-03-27T02:10:34.617Z,85
2023-03-27T02:11:41.420Z,85
2023-03-27T02:12:48.214Z,85
2023-03-27T02:14:02.821Z,85
2023-03-27T02:15:22.891Z,85
2023-03-27T02:16:19.107Z,85
2023-03-27T02:17:25.981Z,85
2023-03-27T02:18:32.718Z,85
2023-03-27T02:19:39.481Z,85
2023-03-27T02:20:49.193Z,85
2023-03-27T02:21:55.978Z,85
2023-03-27T02:23:02.965Z,85
2023-03-27T02:24:09.731Z,85
2023-03-27T02:25:16.533Z,85
2023-03-27T02:26:28.361Z,85
2023-03-27T02:27:35.206Z,85
2023-03-27T02:28:41.986Z,85
2023-03-27T02:29:58.984Z,85
2023-03-27T02:31:31.984Z,85
2023-03-27T02:32:20.798Z,85
2023-03-27T02:33:32.645Z,85
2023-03-27T02:34:49.557Z,85
2023-03-27T02:35:56.566Z,85
2023-03-27T02:37:08.325Z,85
2023-03-27T02:38:15.190Z,85
2023-03-27T02:39:32.138Z,85
2023-03-27T02:40:49.033Z,84
2023-03-27T02:41:58.945Z,84
2023-03-27T02:43:13.614Z,84
2023-03-27T02:44:30.449Z,84
2023-03-27T02:45:40.356Z,84
2023-03-27T02:46:54.892Z,84
2023-03-27T02:48:06.847Z,85
2023-03-27T02:49:13.573Z,84
2023-03-27T02:50:23.500Z,85
2023-03-27T02:51:35.400Z,84
2023-03-27T02:52:42.322Z,84
2023-03-27T02:53:49.143Z,84
2023-03-27T02:55:09.112Z,84
2023-03-27T02:56:20.954Z,84
2023-03-27T02:57:27.715Z,84
2023-03-27T02:58:34.601Z,84
2023-03-27T02:59:46.327Z,84
2023-03-27T03:00:53.239Z,84
2023-03-27T03:02:00.215Z,84
2023-03-27T03:03:07.279Z,84
2023-03-27T03:04:16.882Z,84
2023-03-27T03:05:28.754Z,84
2023-03-27T03:06:35.652Z,84
2023-03-27T03:07:42.428Z,84
2023-03-27T03:08:49.239Z,84
2023-03-27T03:09:56.009Z,84
2023-03-27T03:11:02.810Z,84
2023-03-27T03:12:12.541Z,84
2023-03-27T03:13:19.418Z,84
2023-03-27T03:14:26.236Z,85
2023-03-27T03:15:35.589Z,85
2023-03-27T03:16:42.487Z,85
2023-03-27T03:17:49.181Z,85
2023-03-27T03:18:56.104Z,84
2023-03-27T03:20:03.032Z,85
2023-03-27T03:21:10.329Z,85
2023-03-27T03:22:17.140Z,85
2023-03-27T03:23:23.953Z,85
2023-03-27T03:24:30.733Z,85
2023-03-27T03:25:37.698Z,85
2023-03-27T03:26:44.512Z,85
2023-03-27T03:27:51.340Z,85
2023-03-27T03:28:59.692Z,85
2023-03-27T03:30:05.033Z,85
2023-03-27T03:31:12.084Z,84
2023-03-27T03:32:18.911Z,85
2023-03-27T03:33:25.772Z,85
2023-03-27T03:34:32.592Z,84
2023-03-27T03:35:39.411Z,85
2023-03-27T03:36:46.143Z,84
2023-03-27T03:37:52.962Z,84
2023-03-27T03:38:59.679Z,85
2023-03-27T03:40:06.515Z,85
2023-03-27T03:41:13.586Z,85
2023-03-27T03:42:22.489Z,85
2023-03-27T03:43:27.287Z,85
2023-03-27T03:44:34.008Z,85
2023-03-27T03:45:40.918Z,85
2023-03-27T03:46:47.663Z,85
2023-03-27T03:47:54.461Z,85
2023-03-27T03:49:01.335Z,85
2023-03-27T03:50:08.201Z,85
2023-03-27T03:51:14.949Z,85
2023-03-27T03:52:21.697Z,85
2023-03-27T03:53:28.491Z,85
2023-03-27T03:54:35.374Z,85
2023-03-27T03:55:42.201Z,85
2023-03-27T03:56:49.059Z,85
2023-03-27T03:57:56.086Z,85
2023-03-27T03:59:02.947Z,84
2023-03-27T04:00:09.788Z,84
2023-03-27T04:01:16.935Z,85
2023-03-27T04:02:23.825Z,85
2023-03-27T04:03:33.444Z,85
2023-03-27T04:04:40.166Z,85
2023-03-27T04:05:46.961Z,85
2023-03-27T04:06:53.770Z,85
2023-03-27T04:08:00.598Z,85
2023-03-27T04:09:07.429Z,85
2023-03-27T04:10:14.219Z,85
2023-03-27T04:11:21.057Z,85
2023-03-27T04:12:27.811Z,85
2023-03-27T04:13:34.597Z,85
2023-03-27T04:14:41.375Z,85
2023-03-27T04:15:48.183Z,85
2023-03-27T04:16:54.941Z,85
2023-03-27T04:18:01.750Z,85
2023-03-27T04:19:08.465Z,85
2023-03-27T04:20:15.253Z,85
2023-03-27T04:21:22.091Z,85
2023-03-27T04:22:28.912Z,85
2023-03-27T04:23:35.687Z,85
2023-03-27T04:24:42.546Z,85
2023-03-27T04:25:49.372Z,85
2023-03-27T04:26:56.149Z,85
2023-03-27T04:28:02.916Z,85
2023-03-27T04:29:09.687Z,85
2023-03-27T04:30:16.483Z,85
2023-03-27T04:31:23.289Z,85
2023-03-27T04:32:30.161Z,85
2023-03-27T04:33:36.989Z,85
2023-03-27T04:34:43.759Z,85
2023-03-27T04:35:50.961Z,85
2023-03-27T04:36:57.549Z,85
2023-03-27T04:38:04.360Z,85
2023-03-27T04:39:11.180Z,85
2023-03-27T04:40:18.064Z,86
2023-03-27T04:41:24.846Z,85
2023-03-27T04:42:31.672Z,86
2023-03-27T04:43:38.540Z,86
2023-03-27T04:44:45.371Z,86
2023-03-27T04:45:52.143Z,86
2023-03-27T04:46:59.042Z,86
2023-03-27T04:48:05.951Z,86
2023-03-27T04:49:12.712Z,85
2023-03-27T04:50:22.461Z,86
2023-03-27T04:51:29.221Z,86
2023-03-27T04:52:36.000Z,86
2023-03-27T04:53:42.772Z,86
2023-03-27T04:54:49.639Z,85
2023-03-27T04:55:56.446Z,85
2023-03-27T04:57:09.200Z,85
2023-03-27T04:58:17.223Z,85
2023-03-27T04:59:24.098Z,85
2023-03-27T05:00:30.870Z,85
2023-03-27T05:01:37.777Z,85
2023-03-27T05:02:44.591Z,85
2023-03-27T05:03:51.486Z,85
2023-03-27T05:04:58.178Z,85
2023-03-27T05:06:04.990Z,85
2023-03-27T05:07:11.843Z,85
2023-03-27T05:08:18.649Z,85
2023-03-27T05:09:25.554Z,85
2023-03-27T05:10:32.481Z,85
2023-03-27T05:11:39.284Z,85
2023-03-27T05:12:46.062Z,85
2023-03-27T05:13:52.869Z,85
2023-03-27T05:14:59.721Z,85
2023-03-27T05:16:06.495Z,85
2023-03-27T05:17:13.340Z,85
2023-03-27T05:18:20.200Z,85
2023-03-27T05:19:27.160Z,85
2023-03-27T05:20:33.847Z,85
2023-03-27T05:21:40.664Z,85
2023-03-27T05:22:47.498Z,85
2023-03-27T05:23:57.021Z,85
2023-03-27T05:25:03.802Z,85
2023-03-27T05:26:10.704Z,85
2023-03-27T05:27:17.432Z,85
2023-03-27T05:28:24.240Z,85
2023-03-27T05:29:31.021Z,85
2023-03-27T05:30:37.856Z,85
2023-03-27T05:31:44.619Z,85
2023-03-27T05:32:51.454Z,85
2023-03-27T05:33:58.260Z,85
2023-03-27T05:35:05.069Z,85
2023-03-27T05:36:11.856Z,85
2023-03-27T05:37:21.649Z,85
2023-03-27T05:38:28.392Z,85
2023-03-27T05:39:35.148Z,85
2023-03-27T05:40:42.102Z,86
2023-03-27T05:41:49.012Z,85
2023-03-27T05:42:55.843Z,85
2023-03-27T05:44:02.613Z,85
2023-03-27T05:45:09.426Z,85
2023-03-27T05:46:20.735Z,85
2023-03-27T05:47:23.193Z,86
2023-03-27T05:48:29.898Z,86
2023-03-27T05:49:36.643Z,86
2023-03-27T05:50:43.429Z,86
2023-03-27T05:51:50.295Z,86
2023-03-27T05:52:57.098Z,86
2023-03-27T05:54:03.896Z,86
2023-03-27T05:55:10.663Z,85
2023-03-27T05:56:17.415Z,85
2023-03-27T05:57:24.256Z,85
2023-03-27T05:58:31.076Z,85
2023-03-27T05:59:37.890Z,85
2023-03-27T06:00:44.668Z,85
2023-03-27T06:01:51.512Z,86
2023-03-27T06:02:58.447Z,85
2023-03-27T06:04:05.266Z,85
2023-03-27T06:05:12.020Z,86
2023-03-27T06:06:18.842Z,86
2023-03-27T06:07:25.564Z,86
2023-03-27T06:08:32.436Z,86
2023-03-27T06:09:39.255Z,87
2023-03-27T06:10:46.009Z,86
2023-03-27T06:11:52.849Z,86
2023-03-27T06:12:59.653Z,86
2023-03-27T06:14:11.473Z,86
2023-03-27T06:15:18.238Z,86
2023-03-27T06:16:25.228Z,86
2023-03-27T06:17:32.127Z,86
2023-03-27T06:18:38.884Z,86
2023-03-27T06:19:45.666Z,86
2023-03-27T06:20:52.462Z,86
2023-03-27T06:21:59.248Z,86
2023-03-27T06:23:06.197Z,86
2023-03-27T06:24:12.980Z,85
2023-03-27T06:25:19.750Z,85
2023-03-27T06:26:26.538Z,85
2023-03-27T06:27:33.330Z,85
2023-03-27T06:28:40.155Z,85
2023-03-27T06:29:47.026Z,85
2023-03-27T06:30:53.906Z,85
2023-03-27T06:32:00.586Z,85
2023-03-27T06:33:07.494Z,85
2023-03-27T06:34:14.230Z,85
2023-03-27T06:35:21.152Z,85
2023-03-27T06:36:28.038Z,85
2023-03-27T06:37:34.744Z,86
2023-03-27T06:38:41.462Z,86
2023-03-27T06:39:48.296Z,85
2023-03-27T06:40:55.340Z,85
2023-03-27T06:42:01.974Z,85
2023-03-27T06:43:08.813Z,85
2023-03-27T06:44:15.556Z,85
2023-03-27T06:45:22.380Z,85
2023-03-27T06:46:43.044Z,85
2023-03-27T06:47:53.646Z,85
2023-03-27T06:48:52.505Z,85
2023-03-27T06:49:59.301Z,85
2023-03-27T06:51:06.059Z,85
2023-03-27T06:52:12.875Z,85
2023-03-27T06:54:26.505Z,85
2023-03-27T06:55:33.396Z,85
2023-03-27T06:56:40.338Z,85
2023-03-27T06:57:47.125Z,85
2023-03-27T06:58:53.945Z,85
2023-03-27T07:00:02.406Z,85
2023-03-27T07:01:07.831Z,85
2023-03-27T07:02:14.699Z,85
2023-03-27T07:03:21.559Z,85
2023-03-27T07:04:28.274Z,86
2023-03-27T07:05:35.092Z,85
2023-03-27T07:06:41.881Z,85
2023-03-27T07:07:49.376Z,85
2023-03-27T07:08:55.546Z,85
2023-03-27T07:10:02.311Z,85
2023-03-27T07:11:11.900Z,85
2023-03-27T07:12:16.318Z,85
2023-03-27T07:13:23.237Z,85
2023-03-27T07:14:30.005Z,85
2023-03-27T07:15:36.765Z,85
2023-03-27T07:16:43.614Z,85
2023-03-27T07:17:50.413Z,85
2023-03-27T07:19:02.064Z,85
2023-03-27T07:20:06.973Z,85
2023-03-27T07:21:13.973Z,85
2023-03-27T07:22:20.808Z,85
2023-03-27T07:23:27.621Z,85
2023-03-27T07:24:34.447Z,85
2023-03-27T07:25:41.241Z,85
2023-03-27T07:26:47.975Z,85
2023-03-27T07:27:54.796Z,85
2023-03-27T07:29:04.317Z,85
2023-03-27T07:30:11.138Z,85
2023-03-27T07:32:34.318Z,85
2023-03-27T07:33:31.894Z,85
2023-03-27T07:34:38.585Z,86
2023-03-27T07:35:45.441Z,85
2023-03-27T07:36:52.090Z,85
2023-03-27T07:37:58.920Z,85
2023-03-27T07:39:05.685Z,85
2023-03-27T07:40:12.620Z,85
2023-03-27T07:41:19.758Z,85
2023-03-27T07:42:26.796Z,85
2023-03-27T07:43:33.955Z,85
2023-03-27T07:44:40.736Z,85
2023-03-27T07:45:47.530Z,85
2023-03-27T07:46:54.318Z,85
2023-03-27T07:48:01.176Z,85
2023-03-27T07:49:10.723Z,85
2023-03-27T07:50:17.632Z,85
2023-03-27T07:51:24.504Z,86
2023-03-27T07:52:31.328Z,85
2023-03-27T07:53:38.100Z,85
2023-03-27T07:54:44.879Z,85
2023-03-27T07:55:51.716Z,85
2023-03-27T07:56:58.727Z,85
2023-03-27T07:58:05.392Z,85
2023-03-27T07:59:12.255Z,85
2023-03-27T08:00:19.046Z,85
2023-03-27T08:01:28.544Z,85
2023-03-27T08:02:35.529Z,86
2023-03-27T08:03:42.534Z,85
2023-03-27T08:04:49.250Z,85
2023-03-27T08:05:56.162Z,85
2023-03-27T08:07:02.717Z,85
2023-03-27T08:08:09.666Z,85
2023-03-27T08:09:16.649Z,85
2023-03-27T08:10:23.546Z,85
2023-03-27T08:11:31.119Z,86
2023-03-27T08:12:37.119Z,85
2023-03-27T08:13:43.914Z,85
2023-03-27T08:14:50.751Z,85
2023-03-27T08:15:57.725Z,85
2023-03-27T08:17:15.879Z,85
2023-03-27T08:18:16.359Z,85
2023-03-27T08:19:23.024Z,85
2023-03-27T08:20:29.806Z,85
2023-03-27T08:21:36.611Z,85
2023-03-27T08:22:43.421Z,86
2023-03-27T08:23:50.209Z,86
2023-03-27T08:24:56.970Z,86
2023-03-27T08:26:03.737Z,86
2023-03-27T08:27:10.571Z,86
2023-03-27T08:28:17.443Z,86
2023-03-27T08:29:24.218Z,86
2023-03-27T08:30:31.103Z,85
2023-03-27T08:31:37.853Z,86
2023-03-27T08:32:44.705Z,87
2023-03-27T08:33:51.536Z,87
2023-03-27T08:34:58.408Z,87
2023-03-27T08:36:05.182Z,87
2023-03-27T08:37:12.117Z,87
2023-03-27T08:38:25.899Z,87
2023-03-27T08:39:25.829Z,87
2023-03-27T08:40:32.573Z,87
2023-03-27T08:41:39.385Z,87
2023-03-27T08:42:56.344Z,86
2023-03-27T08:44:05.735Z,86
2023-03-27T08:45:17.604Z,87
2023-03-27T08:46:27.063Z,87
2023-03-27T08:47:41.972Z,87
2023-03-27T08:48:53.871Z,87
2023-03-27T08:50:00.706Z,87
2023-03-27T08:51:07.576Z,87
2023-03-27T08:52:17.367Z,87
2023-03-27T08:53:29.808Z,87
2023-03-27T08:54:41.822Z,87
2023-03-27T08:55:48.577Z,87
2023-03-27T08:56:55.335Z,87
2023-03-27T08:58:02.088Z,87
2023-03-27T08:59:08.886Z,87
2023-03-27T09:00:15.815Z,87
2023-03-27T09:01:25.540Z,87
2023-03-27T09:02:42.497Z,87
2023-03-27T09:03:54.425Z,87
2023-03-27T09:05:06.129Z,86
2023-03-27T09:06:13.059Z,87
2023-03-27T09:07:19.842Z,87
2023-03-27T09:08:31.712Z,87
2023-03-27T09:09:43.679Z,86
2023-03-27T09:10:55.616Z,86
2023-03-27T09:12:07.639Z,87
2023-03-27T09:13:25.130Z,87
2023-03-27T09:14:36.998Z,88
2023-03-27T09:15:43.783Z,87
2023-03-27T09:17:00.698Z,87
2023-03-27T09:18:12.583Z,88
2023-03-27T09:19:19.396Z,88
2023-03-27T09:20:36.343Z,88
2023-03-27T09:21:43.139Z,88
2023-03-27T09:22:54.978Z,88
2023-03-27T09:24:11.858Z,88
2023-03-27T09:25:18.698Z,88
2023-03-27T09:26:33.278Z,88
2023-03-27T09:27:40.109Z,87
2023-03-27T09:28:48.938Z,87
2023-03-27T09:30:05.101Z,87
2023-03-27T09:31:05.982Z,87
2023-03-27T09:32:17.822Z,87
2023-03-27T09:33:24.689Z,87
2023-03-27T09:34:31.469Z,87
2023-03-27T09:35:38.286Z,87
2023-03-27T09:36:45.110Z,87
2023-03-27T09:37:51.871Z,86
2023-03-27T09:38:58.771Z,87
2023-03-27T09:40:05.663Z,87
2023-03-27T09:41:12.571Z,86
2023-03-27T09:42:22.283Z,86
2023-03-27T09:43:34.086Z,86
2023-03-27T09:44:43.791Z,86
2023-03-27T09:45:50.620Z,86
2023-03-27T09:46:57.459Z,86
2023-03-27T09:48:09.360Z,86
2023-03-27T09:49:21.166Z,86
2023-03-27T09:50:28.036Z,86
2023-03-27T09:51:42.745Z,86
2023-03-27T09:52:52.369Z,86
2023-03-27T09:54:09.280Z,86
2023-03-27T09:55:16.098Z,86
2023-03-27T09:56:27.946Z,86
2023-03-27T09:57:34.788Z,86
2023-03-27T09:58:41.625Z,86
2023-03-27T09:59:48.406Z,85
2023-03-27T10:00:58.195Z,85
2023-03-27T10:02:09.964Z,86
2023-03-27T10:03:21.937Z,85
2023-03-27T10:04:28.631Z,85
2023-03-27T10:05:35.391Z,85
2023-03-27T10:06:42.185Z,85
2023-03-27T10:07:54.048Z,85
2023-03-27T10:09:00.812Z,84
2023-03-27T10:10:17.923Z,85
2023-03-27T10:11:24.574Z,84
2023-03-27T10:12:31.343Z,84
2023-03-27T10:13:38.107Z,84
2023-03-27T10:14:47.720Z,84
2023-03-27T10:15:54.565Z,84
2023-03-27T10:17:01.358Z,84
2023-03-27T10:18:08.111Z,83
2023-03-27T10:19:24.980Z,82
2023-03-27T10:20:32.084Z,82
2023-03-27T10:21:38.947Z,83
2023-03-27T10:22:45.703Z,82
2023-03-27T10:23:55.244Z,83
2023-03-27T10:25:01.979Z,83
2023-03-27T10:26:14.013Z,83
2023-03-27T10:27:20.750Z,83
2023-03-27T10:28:27.483Z,84
2023-03-27T10:29:39.077Z,83
2023-03-27T10:30:43.626Z,84
2023-03-27T10:31:50.551Z,83
2023-03-27T10:32:57.318Z,84
2023-03-27T10:34:04.095Z,84
2023-03-27T10:35:10.911Z,84
2023-03-27T10:36:27.851Z,84
2023-03-27T10:37:34.653Z,84
2023-03-27T10:38:41.428Z,84
2023-03-27T10:39:48.212Z,84
2023-03-27T10:40:55.267Z,84
2023-03-27T10:42:01.887Z,84
2023-03-27T10:43:09.688Z,84
2023-03-27T10:44:15.585Z,84
2023-03-27T10:45:22.354Z,83
2023-03-27T10:46:29.198Z,84
2023-03-27T10:47:36.033Z,84
2023-03-27T10:48:42.697Z,84
2023-03-27T10:49:52.367Z,84
2023-03-27T10:51:04.294Z,85
2023-03-27T10:52:11.087Z,85
2023-03-27T10:53:23.015Z,84
2023-03-27T10:54:32.999Z,84
2023-03-27T10:55:44.917Z,85
2023-03-27T10:56:54.563Z,85
2023-03-27T10:58:06.440Z,85
2023-03-27T10:59:25.600Z,84
2023-03-27T11:00:30.997Z,84
2023-03-27T11:01:37.828Z,84
2023-03-27T11:02:44.667Z,84
2023-03-27T11:03:54.541Z,84
2023-03-27T11:05:06.373Z,84
2023-03-27T11:06:13.162Z,83
2023-03-27T11:07:20.046Z,83
2023-03-27T11:08:26.829Z,83
2023-03-27T11:09:39.358Z,84
2023-03-27T11:10:46.217Z,84
2023-03-27T11:11:53.021Z,84
2023-03-27T11:13:02.316Z,84
2023-03-27T11:14:11.838Z,84
2023-03-27T11:15:23.773Z,84
2023-03-27T11:16:33.406Z,84
2023-03-27T11:17:43.213Z,84
2023-03-27T11:18:52.664Z,83
2023-03-27T11:20:09.528Z,84
2023-03-27T11:21:21.446Z,84
2023-03-27T11:22:38.360Z,84
2023-03-27T11:23:45.137Z,84
2023-03-27T11:24:57.108Z,84
2023-03-27T11:26:03.979Z,83
2023-03-27T11:27:11.756Z,83
2023-03-27T11:28:17.500Z,83
2023-03-27T11:29:34.423Z,83
2023-03-27T11:30:46.348Z,83
2023-03-27T11:31:53.260Z,83
2023-03-27T11:33:00.179Z,82
2023-03-27T11:34:28.661Z,82
2023-03-27T11:35:31.592Z,82
2023-03-27T11:36:38.379Z,82
2023-03-27T11:37:53.139Z,82
2023-03-27T11:38:59.931Z,82
2023-03-27T11:40:16.840Z,81
2023-03-27T11:41:28.710Z,82
2023-03-27T11:42:35.482Z,81
2023-03-27T11:43:42.333Z,81
2023-03-27T11:44:49.153Z,82
2023-03-27T11:45:56.062Z,82
2023-03-27T11:47:02.815Z,82
2023-03-27T11:48:14.700Z,81
2023-03-27T11:49:31.625Z,80
2023-03-27T11:50:48.481Z,79
2023-03-27T11:52:05.474Z,78
2023-03-27T11:53:15.055Z,78
2023-03-27T11:54:24.767Z,78
2023-03-27T11:55:36.616Z,78
2023-03-27T11:56:53.644Z,78
2023-03-27T11:58:00.469Z,78
2023-03-27T11:59:17.427Z,77
2023-03-27T12:00:34.471Z,76
2023-03-27T12:01:44.024Z,76
2023-03-27T12:02:50.879Z,76
2023-03-27T12:04:00.329Z,75
2023-03-27T12:05:15.226Z,75
2023-03-27T12:06:27.058Z,75
2023-03-27T12:07:40.551Z,75
2023-03-27T12:08:46.138Z,75
2023-03-27T12:09:55.506Z,74
2023-03-27T12:11:12.502Z,74
2023-03-27T12:12:19.321Z,74
2023-03-27T12:13:41.598Z,74
2023-03-27T12:14:53.183Z,74
2023-03-27T12:16:05.034Z,74
2023-03-27T12:17:17.070Z,74
2023-03-27T12:18:32.426Z,74
2023-03-27T12:19:39.271Z,74
2023-03-27T12:20:53.522Z,74
2023-03-27T12:22:07.182Z,73
2023-03-27T12:23:20.787Z,74
2023-03-27T12:24:39.144Z,74
2023-03-27T12:25:52.455Z,73
2023-03-27T12:26:59.418Z,73
2023-03-27T12:28:07.426Z,73
2023-03-27T12:29:25.483Z,73
2023-03-27T12:30:32.306Z,74
2023-03-27T12:31:46.953Z,75
2023-03-27T12:33:04.012Z,75
2023-03-27T12:34:20.957Z,76
2023-03-27T12:35:33.810Z,75
2023-03-27T12:36:46.558Z,74
2023-03-27T12:38:01.730Z,75
2023-03-27T12:39:18.813Z,75
2023-03-27T12:40:25.763Z,74
2023-03-27T12:41:35.501Z,76
2023-03-27T12:42:43.806Z,75
2023-03-27T12:43:51.961Z,76
2023-03-27T12:45:01.395Z,76
2023-03-27T12:46:18.456Z,76
2023-03-27T12:47:28.089Z,76
2023-03-27T12:48:34.903Z,75
2023-03-27T12:49:51.804Z,75
2023-03-27T12:51:01.372Z,75
2023-03-27T12:52:08.120Z,74
2023-03-27T12:53:14.880Z,74
2023-03-27T12:54:29.748Z,74
2023-03-27T12:55:39.246Z,74
2023-03-27T12:56:46.032Z,74
2023-03-27T12:57:52.970Z,73
2023-03-27T12:58:59.762Z,73
2023-03-27T13:00:06.827Z,73
2023-03-27T13:01:23.770Z,72
2023-03-27T13:02:40.953Z,72
2023-03-27T13:03:55.727Z,71
2023-03-27T13:05:02.595Z,71
2023-03-27T13:06:19.360Z,70
2023-03-27T13:07:36.307Z,69
2023-03-27T13:08:50.693Z,70
2023-03-27T13:10:02.582Z,70
2023-03-27T13:11:09.363Z,69
2023-03-27T13:12:16.132Z,69
2023-03-27T13:13:30.838Z,69
2023-03-27T13:14:47.752Z,69
2023-03-27T13:16:04.744Z,68
2023-03-27T13:17:16.573Z,68
2023-03-27T13:18:28.419Z,67
2023-03-27T13:19:40.264Z,68
2023-03-27T13:20:52.103Z,67
2023-03-27T13:22:04.051Z,67
2023-03-27T13:23:15.892Z,67
2023-03-27T13:24:30.424Z,67
2023-03-27T13:25:47.835Z,66
2023-03-27T13:26:59.783Z,66
2023-03-27T13:28:09.208Z,66
2023-03-27T13:29:18.581Z,66
2023-03-27T13:30:25.395Z,65
2023-03-27T13:31:42.370Z,65
2023-03-27T13:32:49.201Z,65
2023-03-27T13:34:06.113Z,65
2023-03-27T13:35:20.524Z,65
2023-03-27T13:36:27.296Z,64
2023-03-27T13:37:36.557Z,64
2023-03-27T13:38:43.752Z,65
2023-03-27T13:39:55.606Z,64
2023-03-27T13:41:05.296Z,64
2023-03-27T13:42:22.208Z,64
2023-03-27T13:43:34.119Z,64
2023-03-27T13:44:40.899Z,65
2023-03-27T13:45:57.997Z,64
2023-03-27T13:47:05.590Z,64
2023-03-27T13:48:16.402Z,64
2023-03-27T13:49:28.340Z,65
2023-03-27T13:50:43.164Z,65
2023-03-27T13:52:00.094Z,66
2023-03-27T13:53:12.195Z,65
2023-03-27T13:54:29.116Z,65
2023-03-27T13:55:43.640Z,66
2023-03-27T13:56:50.467Z,66
2023-03-27T13:58:05.325Z,67
2023-03-27T13:59:17.643Z,67
2023-03-27T14:00:32.424Z,67
2023-03-27T14:01:47.128Z,67
2023-03-27T14:02:59.165Z,67
2023-03-27T14:04:15.761Z,67
2023-03-27T14:05:32.760Z,67
2023-03-27T14:06:47.439Z,66
2023-03-27T14:07:59.303Z,66
2023-03-27T14:09:14.085Z,66
2023-03-27T14:10:31.000Z,66
2023-03-27T14:11:40.614Z,66
2023-03-27T14:12:50.367Z,65
2023-03-27T14:14:02.277Z,65
2023-03-27T14:15:19.158Z,65
2023-03-27T14:16:36.169Z,65
2023-03-27T14:17:53.159Z,65
2023-03-27T14:19:10.060Z,65
2023-03-27T14:20:24.853Z,65
2023-03-27T14:21:38.674Z,64
2023-03-27T14:22:48.464Z,64
2023-03-27T14:24:00.441Z,64
2023-03-27T14:25:07.272Z,64
2023-03-27T14:26:19.212Z,63
2023-03-27T14:27:25.937Z,64
2023-03-27T14:28:32.826Z,66
2023-03-27T14:29:44.650Z,66
2023-03-27T14:31:04.304Z,67
2023-03-27T14:32:11.037Z,68
2023-03-27T14:33:17.894Z,68
2023-03-27T14:34:24.704Z,69
2023-03-27T14:35:31.461Z,69
2023-03-27T14:36:39.119Z,69
2023-03-27T14:37:47.880Z,69
2023-03-27T14:38:57.308Z,70
2023-03-27T14:40:04.112Z,70
2023-03-27T14:41:21.003Z,70
2023-03-27T14:42:29.223Z,69
2023-03-27T14:43:34.653Z,70
2023-03-27T14:44:41.390Z,68
2023-03-27T14:45:48.250Z,68
2023-03-27T14:46:55.157Z,69
2023-03-27T14:48:07.052Z,68
2023-03-27T14:49:24.718Z,68
2023-03-27T14:50:30.686Z,68
2023-03-27T14:51:37.629Z,67
2023-03-27T14:52:47.283Z,67
2023-03-27T14:53:54.146Z,66
2023-03-27T14:55:00.980Z,66
2023-03-27T14:56:07.938Z,65
2023-03-27T14:57:25.006Z,64
2023-03-27T14:58:31.800Z,64
2023-03-27T14:59:38.525Z,64
2023-03-27T15:00:45.395Z,63
2023-03-27T15:01:52.146Z,62
2023-03-27T15:02:58.953Z,62
2023-03-27T15:04:05.819Z,62
2023-03-27T15:05:12.595Z,62
2023-03-27T15:06:19.381Z,61
2023-03-27T15:07:26.176Z,62
2023-03-27T15:08:32.975Z,62
2023-03-27T15:09:39.910Z,62
2023-03-27T15:10:46.701Z,62
2023-03-27T15:11:53.467Z,61
2023-03-27T15:13:00.377Z,61
2023-03-27T15:14:07.116Z,61
2023-03-27T15:15:16.724Z,60
2023-03-27T15:16:26.366Z,60
2023-03-27T15:17:33.188Z,60
2023-03-27T15:18:39.971Z,60
2023-03-27T15:19:46.948Z,60
2023-03-27T15:20:53.672Z,60
2023-03-27T15:22:01.388Z,60
2023-03-27T15:23:07.374Z,59
2023-03-27T15:24:17.164Z,59
2023-03-27T15:25:29.043Z,58
2023-03-27T15:26:43.782Z,59
2023-03-27T15:27:50.587Z,59
2023-03-27T15:28:57.440Z,59
2023-03-27T15:30:04.271Z,58
2023-03-27T15:31:13.890Z,58
2023-03-27T15:32:20.717Z,58
2023-03-27T15:33:27.551Z,58
2023-03-27T15:34:34.471Z,56
2023-03-27T15:35:41.138Z,56
2023-03-27T15:36:47.983Z,56
2023-03-27T15:37:54.946Z,56
2023-03-27T15:39:01.750Z,56
2023-03-27T15:40:08.731Z,55
2023-03-27T15:41:21.457Z,56
2023-03-27T15:42:31.078Z,56
2023-03-27T15:43:48.066Z,56
2023-03-27T15:44:54.938Z,56
2023-03-27T15:46:02.140Z,56
2023-03-27T15:47:13.892Z,56
2023-03-27T15:48:25.862Z,56
2023-03-27T15:49:35.454Z,56
2023-03-27T15:50:42.317Z,56
2023-03-27T15:51:56.726Z,56
2023-03-27T15:53:03.506Z,56
2023-03-27T15:54:10.512Z,56
2023-03-27T15:55:27.480Z,56
2023-03-27T15:56:37.054Z,57
2023-03-27T15:57:43.780Z,56
2023-03-27T15:58:50.535Z,56
2023-03-27T15:59:57.389Z,56
2023-03-27T16:01:18.361Z,56
2023-03-27T16:02:14.140Z,56
2023-03-27T16:03:21.188Z,56
2023-03-27T16:04:27.891Z,56
2023-03-27T16:05:37.468Z,56
2023-03-27T16:06:44.599Z,56
2023-03-27T16:07:58.480Z,56
2023-03-27T16:09:05.284Z,56
2023-03-27T16:10:22.496Z,55
2023-03-27T16:11:32.148Z,56
2023-03-27T16:12:44.018Z,56
2023-03-27T16:13:51.020Z,55
2023-03-27T16:15:00.616Z,56
2023-03-27T16:16:07.552Z,56
2023-03-27T16:17:21.996Z,56
2023-03-27T16:18:34.404Z,56
2023-03-27T16:19:41.463Z,56
2023-03-27T16:20:58.354Z,55
2023-03-27T16:22:10.220Z,56
2023-03-27T16:23:17.080Z,56
2023-03-27T16:24:23.834Z,56
2023-03-27T16:25:30.662Z,55